createdAt,value
2018-02-15T00:01:53.327Z,88.87
2018-02-15T00:04:25.836Z,88.92
2018-02-15T00:06:54.627Z,89.04
2018-02-15T00:09:28.495Z,88.87
2018-02-15T00:11:58.891Z,88.83
2018-02-15T00:14:28.961Z,88.90
2018-02-15T00:17:01.383Z,88.87
2018-02-15T00:19:30.719Z,88.91
2018-02-15T00:21:59.202Z,89.18
2018-02-15T00:24:29.451Z,89.32
2018-02-15T00:27:00.427Z,89.48
2018-02-15T00:29:28.952Z,89.60
2018-02-15T00:31:59.382Z,89.67
2018-02-15T00:34:29.717Z,89.75
2018-02-15T00:37:03.307Z,89.81
2018-02-15T00:39:33.493Z,89.81
2018-02-15T00:42:02.180Z,90.00
2018-02-15T00:44:30.618Z,90.33
2018-02-15T00:46:59.558Z,90.70
2018-02-15T00:49:29.801Z,90.92
2018-02-15T00:51:59.240Z,91.26
2018-02-15T00:54:30.492Z,91.60
2018-02-15T00:56:58.943Z,91.81
2018-02-15T00:59:27.542Z,92.02
2018-02-15T01:01:56.326Z,92.19
2018-02-15T01:04:25.027Z,92.33
2018-02-15T01:06:53.713Z,92.39
2018-02-15T01:09:22.290Z,92.55
2018-02-15T01:11:50.850Z,92.67
2018-02-15T01:14:20.395Z,92.58
2018-02-15T01:16:49.185Z,92.26
2018-02-15T01:19:24.022Z,91.85
2018-02-15T01:21:54.412Z,91.57
2018-02-15T01:24:30.292Z,91.45
2018-02-15T01:26:58.836Z,91.23
2018-02-15T01:29:27.365Z,90.88
2018-02-15T01:31:56.999Z,90.70
2018-02-15T01:34:27.289Z,90.51
2018-02-15T01:37:00.608Z,90.32
2018-02-15T01:39:29.900Z,89.94
2018-02-15T01:42:00.162Z,89.83
2018-02-15T01:44:28.732Z,89.81
2018-02-15T01:47:00.153Z,90.22
2018-02-15T01:49:29.357Z,90.23
2018-02-15T01:51:59.664Z,90.08
2018-02-15T01:54:30.731Z,89.90
2018-02-15T01:57:00.995Z,89.85
2018-02-15T01:59:32.293Z,89.59
2018-02-15T02:02:04.657Z,89.28
2018-02-15T02:04:40.417Z,89.22
2018-02-15T02:07:11.208Z,89.34
2018-02-15T02:09:42.392Z,89.26
2018-02-15T02:12:16.082Z,89.11
2018-02-15T02:14:45.524Z,89.31
2018-02-15T02:17:18.084Z,90.09
2018-02-15T02:19:46.578Z,90.28
2018-02-15T02:22:17.878Z,90.27
2018-02-15T02:24:46.510Z,90.12
2018-02-15T02:27:14.988Z,90.07
2018-02-15T02:29:43.792Z,89.88
2018-02-15T02:32:26.286Z,89.73
2018-02-15T02:34:54.778Z,89.43
2018-02-15T02:37:26.566Z,89.23
2018-02-15T02:39:55.320Z,89.17
2018-02-15T02:42:39.693Z,89.64
2018-02-15T02:45:10.896Z,89.12
2018-02-15T02:47:39.478Z,89.14
2018-02-15T02:50:07.981Z,89.15
2018-02-15T02:52:38.192Z,89.35
2018-02-15T02:55:07.712Z,89.57
2018-02-15T02:57:37.741Z,90.02
2018-02-15T03:00:08.624Z,89.96
2018-02-15T03:02:39.305Z,89.97
2018-02-15T03:05:08.887Z,90.48
2018-02-15T03:07:40.763Z,90.46
2018-02-15T03:10:09.443Z,90.18
2018-02-15T03:12:37.954Z,89.93
2018-02-15T03:15:06.534Z,89.62
2018-02-15T03:17:35.219Z,89.40
2018-02-15T03:20:05.521Z,89.31
2018-02-15T03:22:35.051Z,89.16
2018-02-15T03:25:05.375Z,89.23
2018-02-15T03:27:38.925Z,89.29
2018-02-15T03:30:07.449Z,89.39
2018-02-15T03:32:35.935Z,89.31
2018-02-15T03:35:04.419Z,89.20
2018-02-15T03:40:19.099Z,89.20
2018-02-15T03:42:49.323Z,89.09
2018-02-15T03:45:28.967Z,89.01
2018-02-15T03:47:59.162Z,88.85
2018-02-15T03:50:27.875Z,88.63
2018-02-15T03:53:00.063Z,88.43
2018-02-15T03:55:31.895Z,88.27
2018-02-15T03:58:00.377Z,88.08
2018-02-15T04:00:30.462Z,87.89
2018-02-15T04:02:59.075Z,87.69
2018-02-15T04:05:27.586Z,87.46
2018-02-15T04:07:57.837Z,87.37
2018-02-15T04:10:27.411Z,87.26
2018-02-15T04:12:58.417Z,87.21
2018-02-15T04:15:28.654Z,87.42
2018-02-15T04:17:58.983Z,87.29
2018-02-15T04:20:28.409Z,87.08
2018-02-15T04:22:58.620Z,87.19
2018-02-15T04:25:27.366Z,86.81
2018-02-15T04:27:57.612Z,86.69
2018-02-15T04:30:28.597Z,86.90
2018-02-15T04:33:06.895Z,86.81
2018-02-15T04:35:37.159Z,86.19
2018-02-15T04:38:07.959Z,86.23
2018-02-15T04:40:36.434Z,86.32
2018-02-15T04:43:04.909Z,86.26
2018-02-15T04:45:41.752Z,85.79
2018-02-15T04:48:12.229Z,85.33
2018-02-15T04:50:43.340Z,85.11
2018-02-15T04:53:20.654Z,85.12
2018-02-15T04:55:52.309Z,85.15
2018-02-15T04:58:22.597Z,84.99
2018-02-15T05:00:52.041Z,84.80
2018-02-15T05:03:22.381Z,84.80
2018-02-15T05:05:54.869Z,84.96
2018-02-15T05:08:29.975Z,84.80
2018-02-15T05:10:58.415Z,84.77
2018-02-15T05:13:26.951Z,84.51
2018-02-15T05:15:55.417Z,84.21
2018-02-15T05:18:29.230Z,83.98
2018-02-15T05:21:04.007Z,83.46
2018-02-15T05:23:36.965Z,83.18
2018-02-15T05:26:05.636Z,82.78
2018-02-15T05:28:34.171Z,82.85
2018-02-15T06:05:26.014Z,80.30
2018-02-15T06:07:54.515Z,80.36
2018-02-15T06:10:25.048Z,80.34
2018-02-15T06:12:53.634Z,80.63
2018-02-15T06:15:23.712Z,81.04
2018-02-15T06:17:53.997Z,80.97
2018-02-15T06:20:24.997Z,81.06
2018-02-15T06:22:53.599Z,80.90
2018-02-15T06:25:22.075Z,80.97
2018-02-15T06:27:50.577Z,80.68
2018-02-15T06:30:19.040Z,80.46
2018-02-15T06:32:47.734Z,80.22
2018-02-15T06:35:17.057Z,80.91
2018-02-15T06:37:47.509Z,81.31
2018-02-15T06:40:18.502Z,81.12
2018-02-15T06:42:48.807Z,81.00
2018-02-15T06:45:19.970Z,81.20
2018-02-15T06:47:50.999Z,81.36
2018-02-15T06:50:20.255Z,81.45
2018-02-15T06:52:51.421Z,81.42
2018-02-15T06:55:27.642Z,81.04
2018-02-15T06:57:56.135Z,81.11
2018-02-15T07:00:26.535Z,81.46
2018-02-15T07:02:57.596Z,79.86
2018-02-15T07:05:26.930Z,79.52
2018-02-15T07:07:55.484Z,78.78
2018-02-15T07:10:26.256Z,78.70
2018-02-15T07:12:57.662Z,78.27
2018-02-15T07:15:28.120Z,77.89
2018-02-15T07:17:59.337Z,77.82
2018-02-15T07:20:30.052Z,77.75
2018-02-15T07:23:00.384Z,77.98
2018-02-15T07:25:33.082Z,77.88
2018-02-15T07:28:05.505Z,77.82
2018-02-15T07:30:34.770Z,77.49
2018-02-15T07:33:03.230Z,77.86
2018-02-15T07:35:33.406Z,77.99
2018-02-15T07:38:02.189Z,77.91
2018-02-15T07:40:32.313Z,77.85
2018-02-15T07:43:02.560Z,77.73
2018-02-15T07:45:32.115Z,77.75
2018-02-15T07:48:01.452Z,77.59
2018-02-15T07:50:30.000Z,77.87
2018-02-15T07:52:58.478Z,77.73
2018-02-15T07:55:26.964Z,77.78
2018-02-15T07:57:57.298Z,77.61
2018-02-15T08:00:26.704Z,77.05
2018-02-15T08:02:55.187Z,77.30
2018-02-15T08:05:23.748Z,77.20
2018-02-15T08:07:54.050Z,77.24
2018-02-15T08:10:26.369Z,76.77
2018-02-15T08:12:57.494Z,76.54
2018-02-15T08:15:28.262Z,76.46
2018-02-15T08:17:58.544Z,76.29
2018-02-15T08:20:29.969Z,76.24
2018-02-15T08:23:02.529Z,76.59
2018-02-15T08:25:32.834Z,74.85
2018-02-15T08:28:04.430Z,75.10
2018-02-15T08:30:33.282Z,75.90
2018-02-15T08:33:02.646Z,75.48
2018-02-15T08:35:31.172Z,74.40
2018-02-15T08:37:59.753Z,72.98
2018-02-15T08:40:28.506Z,73.51
2018-02-15T08:42:59.012Z,73.98
2018-02-15T08:45:28.285Z,74.10
2018-02-15T08:47:59.005Z,73.91
2018-02-15T08:50:29.280Z,73.54
2018-02-15T08:52:59.550Z,72.65
2018-02-15T08:55:30.599Z,72.65
2018-02-15T08:58:00.780Z,72.94
2018-02-15T09:00:31.096Z,73.06
2018-02-15T09:03:03.806Z,72.31
2018-02-15T09:05:35.833Z,72.33
2018-02-15T09:08:04.586Z,72.86
2018-02-15T09:10:33.273Z,72.52
2018-02-15T09:13:11.405Z,71.69
2018-02-15T09:15:42.541Z,71.26
2018-02-15T09:18:11.216Z,70.16
2018-02-15T09:20:46.248Z,69.44
2018-02-15T09:23:30.790Z,69.86
2018-02-15T09:25:59.698Z,68.68
2018-02-15T09:28:28.183Z,69.01
2018-02-15T09:30:56.614Z,68.34
2018-02-15T09:33:25.241Z,68.03
2018-02-15T09:35:54.764Z,68.74
2018-02-15T09:38:26.791Z,67.94
2018-02-15T09:40:55.303Z,67.55
2018-02-15T09:43:28.649Z,67.55
2018-02-15T09:45:57.999Z,67.76
2018-02-15T09:48:32.330Z,67.24
2018-02-15T09:51:02.624Z,66.92
2018-02-15T09:53:32.255Z,67.15
2018-02-15T09:56:06.706Z,65.88
2018-02-15T09:58:36.883Z,65.10
2018-02-15T10:01:07.170Z,65.21
2018-02-15T10:03:38.693Z,65.33
2018-02-15T10:06:11.621Z,66.04
2018-02-15T10:08:40.239Z,65.52
2018-02-15T10:11:12.541Z,64.87
2018-02-15T10:13:43.031Z,64.92
2018-02-15T10:16:11.680Z,66.02
2018-02-15T10:18:40.525Z,64.30
2018-02-15T10:21:09.009Z,64.25
2018-02-15T10:23:39.408Z,65.57
2018-02-15T10:26:17.008Z,65.21
2018-02-15T10:28:48.241Z,65.53
2018-02-15T10:33:59.042Z,64.69
2018-02-15T10:36:27.529Z,65.04
2018-02-15T10:38:57.743Z,64.08
2018-02-15T10:41:32.762Z,64.23
2018-02-15T10:44:02.309Z,64.64
2018-02-15T10:46:32.467Z,64.78
2018-02-15T10:49:04.766Z,64.59
2018-02-15T10:51:39.720Z,64.30
2018-02-15T10:54:08.530Z,64.16
2018-02-15T10:56:40.593Z,65.22
2018-02-15T10:59:10.765Z,64.08
2018-02-15T11:01:45.023Z,63.15
2018-02-15T11:04:22.227Z,63.62
2018-02-15T11:06:50.905Z,64.14
2018-02-15T11:09:23.495Z,63.51
2018-02-15T11:11:53.695Z,64.53
2018-02-15T11:14:25.418Z,63.18
2018-02-15T11:16:57.587Z,63.31
2018-02-15T11:19:31.951Z,62.60
2018-02-15T11:22:00.539Z,61.66
2018-02-15T11:24:29.842Z,60.75
2018-02-15T11:26:59.982Z,61.77
2018-02-15T11:29:30.377Z,61.92
2018-02-15T11:31:59.682Z,61.79
2018-02-15T11:34:36.102Z,61.49
2018-02-15T11:37:07.095Z,62.23
2018-02-15T11:39:36.612Z,61.61
2018-02-15T11:44:41.542Z,62.15
2018-02-15T11:49:53.067Z,63.05
2018-02-15T11:52:25.118Z,62.50
2018-02-15T11:54:53.929Z,63.64
2018-02-15T11:57:24.227Z,63.11
2018-02-15T11:59:56.678Z,62.82
2018-02-15T12:02:28.888Z,62.47
2018-02-15T12:04:57.570Z,63.29
2018-02-15T12:07:32.387Z,62.43
2018-02-15T12:10:00.987Z,63.08
2018-02-15T12:12:31.083Z,62.64
2018-02-15T12:14:59.798Z,63.37
2018-02-15T12:17:30.142Z,62.61
2018-02-15T12:20:00.532Z,62.52
2018-02-15T12:22:31.595Z,63.27
2018-02-15T12:25:02.745Z,62.87
2018-02-15T12:27:41.557Z,62.47
2018-02-15T12:30:24.382Z,63.53
2018-02-15T12:32:53.087Z,62.46
2018-02-15T12:35:21.786Z,61.65
2018-02-15T12:40:29.160Z,62.35
2018-02-15T12:42:59.459Z,62.51
2018-02-15T12:45:30.984Z,61.71
2018-02-15T12:47:59.623Z,60.63
2018-02-15T12:50:28.082Z,61.75
2018-02-15T12:52:58.204Z,61.01
2018-02-15T12:55:26.921Z,61.74
2018-02-15T12:57:55.622Z,61.49
2018-02-15T13:00:24.094Z,62.14
2018-02-15T13:02:54.539Z,62.21
2018-02-15T13:05:28.577Z,62.30
2018-02-15T13:07:59.038Z,61.90
2018-02-15T13:10:30.010Z,62.48
2018-02-15T13:13:12.174Z,62.74
2018-02-15T13:15:56.864Z,60.98
2018-02-15T13:18:39.685Z,60.85
2018-02-15T13:21:08.222Z,61.63
2018-02-15T13:23:36.829Z,61.29
2018-02-15T13:26:05.316Z,61.15
2018-02-15T13:28:40.315Z,62.05
2018-02-15T13:31:09.548Z,61.28
2018-02-15T13:33:38.042Z,62.00
2018-02-15T13:36:06.617Z,61.36
2018-02-15T13:38:38.277Z,60.88
2018-02-15T13:41:10.671Z,61.54
2018-02-15T13:43:41.278Z,62.59
2018-02-15T13:46:11.607Z,62.67
2018-02-15T13:48:43.606Z,62.62
2018-02-15T13:51:35.284Z,62.66
2018-02-15T13:54:04.609Z,62.61
2018-02-15T13:56:34.728Z,62.96
2018-02-15T13:59:05.446Z,62.78
2018-02-15T14:01:34.651Z,62.86
2018-02-15T14:04:04.931Z,63.65
2018-02-15T14:06:36.040Z,63.82
2018-02-15T14:09:07.207Z,63.65
2018-02-15T14:11:48.963Z,63.26
2018-02-15T14:14:19.239Z,64.02
2018-02-15T14:16:50.158Z,63.98
2018-02-15T14:19:19.414Z,64.07
2018-02-15T14:21:50.668Z,64.09
2018-02-15T14:24:20.864Z,64.42
2018-02-15T14:26:51.176Z,63.26
2018-02-15T14:29:22.022Z,64.07
2018-02-15T14:31:52.087Z,64.05
2018-02-15T14:34:31.192Z,64.63
2018-02-15T14:37:00.388Z,65.17
2018-02-15T14:39:37.168Z,66.05
2018-02-15T14:42:07.438Z,66.55
2018-02-15T14:44:46.537Z,66.20
2018-02-15T14:47:16.793Z,67.16
2018-02-15T14:49:47.065Z,67.27
2018-02-15T14:52:16.668Z,68.72
2018-02-15T14:54:48.937Z,69.99
2018-02-15T14:57:17.497Z,70.95
2018-02-15T14:59:46.017Z,71.63
2018-02-15T15:02:14.497Z,72.88
2018-02-15T15:04:46.867Z,74.09
2018-02-15T15:07:15.456Z,74.87
2018-02-15T15:09:44.054Z,75.61
2018-02-15T15:12:12.736Z,76.63
2018-02-15T15:14:41.423Z,77.25
2018-02-15T15:17:10.011Z,78.19
2018-02-15T15:19:38.607Z,79.38
2018-02-15T15:22:07.282Z,79.53
2018-02-15T15:24:37.616Z,81.00
2018-02-15T15:27:08.533Z,81.66
2018-02-15T15:29:38.637Z,82.22
2018-02-15T15:38:28.732Z,83.40
2018-02-15T15:41:02.551Z,83.82
2018-02-15T15:43:36.200Z,84.58
2018-02-15T15:46:10.131Z,84.83
2018-02-15T15:49:55.794Z,85.50
2018-02-15T15:52:29.534Z,86.24
2018-02-15T15:54:57.755Z,86.82
2018-02-15T15:57:26.039Z,86.83
2018-02-15T15:59:54.272Z,87.89
2018-02-15T16:02:22.560Z,88.08
2018-02-15T16:04:50.789Z,88.62
2018-02-15T16:07:19.030Z,89.33
2018-02-15T16:09:47.296Z,89.98
2018-02-15T16:12:15.526Z,90.13
2018-02-15T16:14:44.432Z,90.68
2018-02-15T16:17:12.663Z,90.81
2018-02-15T16:19:40.941Z,90.98
2018-02-15T16:22:09.867Z,91.03
2018-02-15T16:24:39.090Z,91.16
2018-02-15T16:27:07.457Z,91.72
2018-02-15T16:29:35.730Z,91.81
2018-02-15T16:32:03.990Z,92.49
2018-02-15T16:34:32.257Z,92.47
2018-02-15T16:37:00.503Z,92.39
2018-02-15T16:39:35.557Z,92.98
2018-02-15T16:42:03.814Z,93.35
2018-02-15T16:44:32.179Z,93.37
2018-02-15T16:47:00.438Z,93.32
2018-02-15T16:49:29.826Z,93.34
2018-02-15T16:52:00.523Z,93.34
2018-02-15T16:54:28.777Z,93.37
2018-02-15T16:57:00.901Z,93.44
2018-02-15T16:59:29.190Z,93.40
2018-02-15T17:01:57.447Z,93.50
2018-02-15T17:04:25.769Z,93.58
2018-02-15T17:06:53.997Z,93.56
2018-02-15T17:09:22.286Z,93.67
2018-02-15T17:11:50.529Z,93.77
2018-02-15T17:14:18.875Z,93.73
2018-02-15T17:16:47.117Z,93.65
2018-02-15T17:19:15.397Z,93.80
2018-02-15T17:21:43.658Z,93.86
2018-02-15T17:24:11.923Z,93.78
2018-02-15T17:26:40.175Z,93.74
2018-02-15T17:29:08.413Z,93.77
2018-02-15T17:31:36.718Z,93.75
2018-02-15T17:34:04.964Z,94.07
2018-02-15T17:36:33.260Z,94.07
2018-02-15T17:39:01.497Z,94.03
2018-02-15T17:41:29.755Z,94.03
2018-02-15T17:44:00.861Z,93.99
2018-02-15T17:46:29.124Z,94.19
2018-02-15T17:48:57.365Z,94.31
2018-02-15T17:51:25.651Z,94.48
2018-02-15T17:53:53.940Z,94.52
2018-02-15T17:56:24.045Z,94.40
2018-02-15T17:58:52.307Z,94.29
2018-02-15T18:01:20.585Z,94.26
2018-02-15T18:03:48.867Z,94.33
2018-02-15T18:06:17.115Z,94.42
2018-02-15T18:08:45.390Z,94.43
2018-02-15T18:11:13.660Z,94.47
2018-02-15T18:13:41.936Z,94.56
2018-02-15T18:16:12.777Z,94.64
2018-02-15T18:18:41.066Z,94.63
2018-02-15T18:21:09.321Z,94.66
2018-02-15T18:23:37.583Z,94.64
2018-02-15T18:26:05.874Z,94.69
2018-02-15T18:28:34.144Z,94.64
2018-02-15T18:31:02.437Z,94.59
2018-02-15T18:33:30.688Z,94.56
2018-02-15T18:35:59.313Z,94.55
2018-02-15T18:38:28.917Z,94.76
2018-02-15T18:40:57.209Z,94.84
2018-02-15T18:43:29.306Z,94.89
2018-02-15T18:45:57.586Z,95.00
2018-02-15T18:48:25.867Z,94.96
2018-02-15T18:50:54.170Z,94.90
2018-02-15T18:53:35.415Z,94.93
2018-02-15T18:56:03.664Z,94.93
2018-02-15T18:58:31.989Z,94.87
2018-02-15T19:01:00.259Z,94.90
2018-02-15T19:03:28.513Z,94.87
2018-02-15T19:05:56.874Z,94.80
2018-02-15T19:08:28.951Z,94.76
2018-02-15T19:10:57.260Z,94.74
2018-02-15T19:13:29.426Z,94.69
2018-02-15T19:15:57.731Z,94.64
2018-02-15T19:18:25.973Z,94.66
2018-02-15T19:20:54.336Z,94.66
2018-02-15T19:23:29.254Z,94.71
2018-02-15T19:25:57.556Z,94.78
2018-02-15T19:28:25.847Z,94.78
2018-02-15T19:30:54.154Z,94.75
2018-02-15T19:33:22.487Z,94.72
2018-02-15T19:35:50.809Z,94.81
2018-02-15T19:38:19.531Z,94.79
2018-02-15T19:40:54.385Z,94.80
2018-02-15T19:43:22.730Z,94.97
2018-02-15T19:45:51.040Z,95.06
2018-02-15T19:48:19.432Z,95.27
2018-02-15T19:50:47.760Z,95.36
2018-02-15T19:53:19.727Z,95.47
2018-02-15T19:55:48.023Z,95.59
2018-02-15T19:58:17.967Z,95.62
2018-02-15T20:00:46.332Z,95.68
2018-02-15T20:03:14.712Z,95.74
2018-02-15T20:05:44.029Z,95.77
2018-02-15T20:08:18.232Z,96.04
2018-02-15T20:10:46.604Z,96.09
2018-02-15T20:13:14.925Z,96.07
2018-02-15T20:15:47.259Z,96.06
2018-02-15T20:18:18.124Z,96.09
2018-02-15T20:20:46.488Z,96.43
2018-02-15T20:23:21.860Z,96.53
2018-02-15T20:25:55.677Z,96.57
2018-02-15T20:28:26.557Z,96.76
2018-02-15T20:30:54.934Z,96.84
2018-02-15T20:33:23.324Z,96.94
2018-02-15T20:35:51.707Z,96.92
2018-02-15T20:38:25.663Z,96.89
2018-02-15T20:40:53.945Z,96.87
2018-02-15T20:43:23.896Z,96.90
2018-02-15T20:45:52.197Z,96.95
2018-02-15T20:48:20.510Z,96.99
2018-02-15T20:50:55.126Z,97.01
2018-02-15T20:53:28.884Z,97.26
2018-02-15T20:55:57.167Z,97.25
2018-02-15T20:58:28.750Z,97.25
2018-02-15T21:00:57.043Z,97.24
2018-02-15T21:03:25.338Z,97.25
2018-02-15T21:05:53.642Z,97.34
2018-02-15T21:08:21.924Z,97.47
2018-02-15T21:10:50.315Z,97.49
2018-02-15T21:13:18.606Z,97.51
2018-02-15T21:15:46.982Z,97.51
2018-02-15T21:18:15.262Z,97.55
2018-02-15T21:20:43.568Z,97.66
2018-02-15T21:23:11.933Z,97.74
2018-02-15T21:25:40.158Z,97.73
2018-02-15T21:28:08.601Z,97.73
2018-02-15T21:30:36.874Z,97.74
2018-02-15T21:33:05.110Z,97.76
2018-02-15T21:35:33.415Z,97.80
2018-02-15T21:38:01.690Z,97.90
2018-02-15T21:40:29.933Z,98.07
2018-02-15T21:42:58.512Z,98.29
2018-02-15T21:45:26.809Z,98.47
2018-02-15T21:47:55.289Z,98.52
2018-02-15T21:50:23.573Z,98.56
2018-02-15T21:52:51.823Z,98.73
2018-02-15T21:55:20.142Z,98.78
2018-02-15T21:57:48.382Z,99.02
2018-02-15T22:00:16.685Z,99.11
2018-02-15T22:02:44.961Z,99.15
2018-02-15T22:05:13.226Z,99.23
2018-02-15T22:07:41.514Z,99.28
2018-02-15T22:10:10.392Z,99.36
2018-02-15T22:12:38.687Z,99.41
2018-02-15T22:15:09.279Z,99.46
2018-02-15T22:17:37.550Z,99.49
2018-02-15T22:20:05.802Z,99.57
2018-02-15T22:22:34.192Z,99.61
2018-02-15T22:25:02.450Z,99.67
2018-02-15T22:27:30.716Z,99.68
2018-02-15T22:29:58.981Z,99.78
2018-02-15T22:32:35.098Z,99.84
2018-02-15T22:35:18.271Z,99.89
2018-02-15T22:37:52.425Z,99.97
2018-02-15T22:40:20.682Z,100.00
2018-02-15T22:42:56.766Z,100.00
2018-02-15T22:45:25.051Z,100.00
2018-02-15T22:47:53.411Z,100.00
2018-02-15T22:50:21.696Z,100.00
2018-02-15T22:52:49.971Z,100.00
2018-02-15T22:55:18.247Z,100.00
2018-02-15T22:57:46.537Z,100.00
2018-02-15T23:00:15.636Z,100.00
2018-02-15T23:02:43.891Z,100.00
2018-02-15T23:05:12.189Z,100.00
2018-02-15T23:07:40.454Z,100.00
2018-02-15T23:10:08.719Z,100.00
2018-02-15T23:12:37.005Z,100.00
2018-02-15T23:15:05.260Z,100.00
2018-02-15T23:17:46.793Z,100.00
2018-02-15T23:20:15.126Z,100.00
2018-02-15T23:22:43.407Z,100.00
2018-02-15T23:25:11.700Z,100.00
2018-02-15T23:27:39.984Z,100.00
2018-02-15T23:33:13.639Z,100.00
2018-02-15T23:35:42.068Z,100.00
2018-02-15T23:38:10.471Z,100.00
2018-02-15T23:40:38.824Z,100.00
2018-02-15T23:43:07.135Z,100.00
2018-02-15T23:45:35.475Z,100.00
2018-02-15T23:48:03.831Z,100.00
2018-02-15T23:50:32.959Z,100.00
2018-02-15T23:53:02.061Z,100.00
2018-02-15T23:55:30.350Z,100.00
2018-02-15T23:57:58.924Z,100.00
